Time;durP1;ratioP1;P1;durP2;ratioP2;P2;SDS_P1;SDS_P2;PMS_P1;PMS_P2;Temp;Humidity;BMP_temperature;BMP_pressure;BME280_temperature;BME280_humidity;BME280_pressure;Samples;Min_cycle;Max_cycle;Signal;HPM_P1;HPM_P2
2021/03/01 00:02:50;;;;;;;9.47;8.50;;;4.70;87.90;;;;;;10502461;28;20287;-81
2021/03/01 00:07:52;;;;;;;9.93;8.90;;;4.70;88.30;;;;;;10491622;28;20585;-81
2021/03/01 00:12:54;;;;;;;10.70;9.60;;;4.70;88.20;;;;;;10492721;28;20373;-81
2021/03/01 00:17:56;;;;;;;10.87;9.13;;;4.70;87.90;;;;;;10500260;28;20282;-80
2021/03/01 00:22:58;;;;;;;10.93;9.73;;;4.60;88.30;;;;;;10496736;28;20275;-81
2021/03/01 00:27:59;;;;;;;13.17;11.23;;;4.60;88.70;;;;;;10485662;28;20823;-81
2021/03/01 00:33:02;;;;;;;11.63;10.03;;;4.50;89.10;;;;;;10500391;28;20707;-81
2021/03/01 00:38:04;;;;;;;11.27;10.07;;;4.50;89.10;;;;;;10513018;28;20303;-81
2021/03/01 00:43:10;;;;;;;12.07;10.67;;;4.50;89.30;;;;;;10497664;28;20202;-81
2021/03/01 00:48:13;;;;;;;12.10;10.60;;;4.50;88.90;;;;;;10477924;28;20212;-81
2021/03/01 00:53:21;;;;;;;10.13;9.13;;;4.40;89.00;;;;;;10502238;28;20706;-81
2021/03/01 00:58:22;;;;;;;9.97;8.97;;;4.40;89.20;;;;;;10471479;28;20223;-81
2021/03/01 01:03:25;;;;;;;10.87;8.90;;;4.40;89.10;;;;;;10504214;28;20239;-81
2021/03/01 01:08:39;;;;;;;10.10;9.10;;;4.30;88.70;;;;;;10487884;28;20204;-81
2021/03/01 01:13:41;;;;;;;10.50;9.23;;;4.30;89.30;;;;;;10507644;28;20200;-81
2021/03/01 01:18:43;;;;;;;12.03;10.37;;;4.30;89.10;;;;;;10528675;28;20222;-81
2021/03/01 01:23:45;;;;;;;11.27;9.63;;;4.30;89.00;;;;;;10478119;28;20569;-81
2021/03/01 01:28:47;;;;;;;10.80;9.67;;;4.30;89.30;;;;;;10490477;28;20748;-81
2021/03/01 01:33:49;;;;;;;12.50;10.13;;;4.30;89.00;;;;;;10497911;28;20235;-81
2021/03/01 01:38:51;;;;;;;9.83;8.90;;;4.20;89.10;;;;;;10500929;28;20228;-81
2021/03/01 01:43:53;;;;;;;11.90;10.60;;;4.20;89.10;;;;;;10492402;28;20648;-81
2021/03/01 01:48:55;;;;;;;10.50;9.47;;;4.20;89.20;;;;;;10483328;28;20216;-81
2021/03/01 01:53:57;;;;;;;10.20;9.20;;;4.10;89.60;;;;;;10491238;28;20201;-81
2021/03/01 01:58:58;;;;;;;11.47;10.37;;;4.10;89.60;;;;;;10520924;22;20231;-77
2021/03/01 02:04:06;;;;;;;12.37;11.07;;;4.10;89.50;;;;;;10522842;28;20206;-79
2021/03/01 02:09:27;;;;;;;11.23;9.93;;;4.00;89.80;;;;;;10524963;28;20648;-77
2021/03/01 02:14:36;;;;;;;11.30;10.20;;;4.00;90.00;;;;;;10520971;28;20224;-78
2021/03/01 02:19:39;;;;;;;13.20;11.27;;;4.00;90.00;;;;;;10513502;28;20209;-77
2021/03/01 02:24:45;;;;;;;11.47;10.30;;;3.90;89.80;;;;;;10517874;28;20576;-79
2021/03/01 02:29:47;;;;;;;11.20;9.90;;;3.90;90.00;;;;;;10517469;28;20302;-78
2021/03/01 02:34:50;;;;;;;11.97;10.60;;;3.80;90.00;;;;;;10520599;28;20238;-77
2021/03/01 02:39:53;;;;;;;11.17;9.97;;;3.80;90.10;;;;;;10530221;28;20207;-78
2021/03/01 02:44:56;;;;;;;12.50;10.57;;;3.80;90.20;;;;;;10518375;28;20664;-78
2021/03/01 02:50:00;;;;;;;11.33;10.17;;;3.70;90.20;;;;;;10507683;28;20303;-78
2021/03/01 02:55:04;;;;;;;12.17;9.87;;;3.70;90.00;;;;;;10505316;28;20346;-77
2021/03/01 03:00:08;;;;;;;14.30;10.97;;;3.70;90.00;;;;;;10505531;28;20561;-79
2021/03/01 03:05:12;;;;;;;11.73;10.43;;;3.70;90.10;;;;;;10485485;28;20724;-79
2021/03/01 03:10:17;;;;;;;11.50;9.87;;;3.70;90.00;;;;;;10506023;28;20266;-79
2021/03/01 03:15:20;;;;;;;13.10;9.77;;;3.70;90.30;;;;;;10504489;28;20801;-78
2021/03/01 03:20:22;;;;;;;12.80;10.40;;;3.60;90.10;;;;;;10506721;28;20666;-77
2021/03/01 03:25:24;;;;;;;11.30;9.60;;;3.60;90.10;;;;;;10498237;28;20203;-78
2021/03/01 03:30:27;;;;;;;10.47;9.40;;;3.50;90.10;;;;;;10503741;28;20273;-77
2021/03/01 03:35:29;;;;;;;9.80;8.90;;;3.50;90.30;;;;;;10502158;28;20197;-78
2021/03/01 03:40:32;;;;;;;10.17;9.07;;;3.40;90.30;;;;;;10500834;28;20244;-79
2021/03/01 03:45:35;;;;;;;10.80;9.70;;;3.40;90.50;;;;;;10498762;28;20220;-79
2021/03/01 03:50:38;;;;;;;10.13;9.13;;;3.40;90.30;;;;;;10503429;28;20643;-79
2021/03/01 03:55:45;;;;;;;10.80;9.70;;;3.30;90.20;;;;;;10482392;28;20196;-80
2021/03/01 04:00:49;;;;;;;11.63;10.43;;;3.30;90.40;;;;;;10501058;28;20237;-79
2021/03/01 04:05:53;;;;;;;10.30;8.90;;;3.40;90.40;;;;;;10482644;28;20312;-79
2021/03/01 04:10:57;;;;;;;10.60;9.50;;;3.40;90.60;;;;;;10498101;28;20300;-79
2021/03/01 04:15:59;;;;;;;12.07;10.53;;;3.40;90.40;;;;;;10499011;28;20569;-80
2021/03/01 04:21:04;;;;;;;10.93;9.83;;;3.40;90.20;;;;;;10499282;28;20274;-79
2021/03/01 04:26:07;;;;;;;10.60;9.60;;;3.40;90.20;;;;;;10498161;28;20200;-79
2021/03/01 04:31:10;;;;;;;11.50;10.37;;;3.40;90.20;;;;;;10497372;28;20229;-80
2021/03/01 04:36:12;;;;;;;10.80;9.70;;;3.40;90.30;;;;;;10498260;28;20196;-79
2021/03/01 04:41:16;;;;;;;12.30;11.03;;;3.30;90.40;;;;;;10480175;28;20219;-79
2021/03/01 04:46:19;;;;;;;10.90;9.77;;;3.30;90.50;;;;;;10496874;28;20192;-79
2021/03/01 04:51:23;;;;;;;12.50;9.90;;;3.30;90.30;;;;;;10497685;28;20706;-80
2021/03/01 04:56:27;;;;;;;10.50;9.37;;;3.30;90.50;;;;;;10493177;28;20201;-80
2021/03/01 05:01:30;;;;;;;12.03;10.43;;;3.30;90.50;;;;;;10479248;28;20224;-79
2021/03/01 05:06:33;;;;;;;10.40;9.30;;;3.30;90.30;;;;;;10492290;28;20208;-79
2021/03/01 05:11:37;;;;;;;15.00;12.63;;;3.30;90.40;;;;;;10493234;28;20225;-79
2021/03/01 05:16:39;;;;;;;12.60;10.10;;;3.20;90.60;;;;;;10496750;28;20185;-80
2021/03/01 05:21:40;;;;;;;10.53;9.43;;;3.20;90.70;;;;;;10476534;28;20215;-80
2021/03/01 05:26:42;;;;;;;9.87;8.83;;;3.20;90.50;;;;;;10495795;28;20208;-80
2021/03/01 05:31:44;;;;;;;10.67;9.60;;;3.20;90.40;;;;;;10496507;28;20263;-80
2021/03/01 05:36:46;;;;;;;10.50;9.40;;;3.20;90.50;;;;;;10507520;28;20212;-80
2021/03/01 05:41:50;;;;;;;12.60;10.17;;;3.20;90.40;;;;;;10478084;28;20269;-80
2021/03/01 05:46:55;;;;;;;12.57;9.77;;;3.20;90.40;;;;;;10498128;28;20197;-81
2021/03/01 05:51:59;;;;;;;12.17;9.70;;;3.10;90.40;;;;;;10486256;28;20224;-81
2021/03/01 05:57:04;;;;;;;11.40;10.20;;;3.10;90.40;;;;;;10496583;28;20200;-81
2021/03/01 06:02:06;;;;;;;11.07;9.93;;;3.10;90.30;;;;;;10502157;28;20226;-81
2021/03/01 06:07:08;;;;;;;11.30;10.10;;;3.00;90.40;;;;;;10512431;28;20588;-81
2021/03/01 06:12:11;;;;;;;10.33;9.40;;;3.10;90.50;;;;;;10511640;28;20220;-81
2021/03/01 06:17:15;;;;;;;12.57;10.30;;;3.00;90.50;;;;;;10500102;28;20212;-81
2021/03/01 06:22:19;;;;;;;12.10;10.90;;;3.00;90.60;;;;;;10524877;28;20248;-79
2021/03/01 06:27:22;;;;;;;13.70;11.20;;;3.00;90.50;;;;;;10502845;28;20193;-79
2021/03/01 06:32:23;;;;;;;12.27;10.93;;;3.00;90.60;;;;;;10509561;28;20749;-79
2021/03/01 06:37:25;;;;;;;11.90;10.60;;;3.00;90.60;;;;;;10494839;28;20253;-79
2021/03/01 06:42:30;;;;;;;12.20;10.90;;;3.00;90.90;;;;;;10492802;28;20208;-80
2021/03/01 06:47:47;;;;;;;12.37;11.03;;;3.10;90.80;;;;;;10494636;28;20188;-80
2021/03/01 06:52:49;;;;;;;12.10;10.80;;;3.10;90.80;;;;;;10493389;28;20598;-80
2021/03/01 06:57:51;;;;;;;13.23;10.70;;;3.10;90.80;;;;;;10494715;28;20204;-80
2021/03/01 07:02:54;;;;;;;11.07;9.93;;;3.20;90.90;;;;;;10494183;28;20208;-80
2021/03/01 07:07:56;;;;;;;11.40;10.30;;;3.20;90.80;;;;;;10494556;28;20216;-81
2021/03/01 07:12:58;;;;;;;12.97;10.80;;;3.20;90.80;;;;;;10494423;28;20641;-81
2021/03/01 07:18:01;;;;;;;15.70;11.40;;;3.20;91.00;;;;;;10495221;28;20308;-80
2021/03/01 07:23:03;;;;;;;15.37;11.17;;;3.30;91.00;;;;;;10480265;28;20204;-80
2021/03/01 07:28:08;;;;;;;12.70;11.00;;;3.40;91.10;;;;;;10494538;28;20307;-81
2021/03/01 07:33:15;;;;;;;14.93;11.10;;;3.40;91.00;;;;;;10505177;28;20311;-81
2021/03/01 07:38:20;;;;;;;14.00;12.20;;;3.50;91.40;;;;;;10483539;28;20280;-80
2021/03/01 07:43:24;;;;;;;14.03;11.40;;;3.60;91.30;;;;;;10499893;28;20242;-79
2021/03/01 07:48:35;;;;;;;15.20;12.47;;;3.70;91.50;;;;;;10501451;28;20217;-79
2021/03/01 07:53:50;;;;;;;17.03;13.30;;;3.80;91.50;;;;;;10504748;28;20266;-81
2021/03/01 07:58:57;;;;;;;16.10;12.70;;;3.90;91.70;;;;;;10520649;22;20284;-79
2021/03/01 08:03:58;;;;;;;15.43;13.40;;;4.10;91.30;;;;;;10537589;28;20189;-79
2021/03/01 08:09:00;;;;;;;16.40;13.37;;;4.20;91.60;;;;;;10532320;28;20212;-79
2021/03/01 08:14:03;;;;;;;20.50;16.57;;;4.30;91.40;;;;;;10541394;28;20239;-79
2021/03/01 08:19:05;;;;;;;21.27;16.00;;;4.40;91.50;;;;;;10509600;28;20365;-79
2021/03/01 08:24:44;;;;;;;22.33;14.77;;;4.60;91.30;;;;;;10510973;28;20212;-79
2021/03/01 08:30:19;;;;;;;22.07;16.17;;;4.80;91.40;;;;;;10494823;28;20241;-79
2021/03/01 08:35:22;;;;;;;22.90;16.03;;;5.00;91.50;;;;;;10499704;28;20309;-79
2021/03/01 08:40:24;;;;;;;18.00;15.47;;;5.10;91.10;;;;;;10512853;28;20244;-79
2021/03/01 08:45:37;;;;;;;19.60;16.20;;;5.30;91.50;;;;;;10521283;28;20223;-79
2021/03/01 08:50:40;;;;;;;20.97;16.17;;;5.50;91.10;;;;;;10523140;28;20223;-79
2021/03/01 08:55:41;;;;;;;19.67;16.30;;;5.70;90.90;;;;;;10509250;28;20246;-79
2021/03/01 09:00:52;;;;;;;20.70;16.80;;;5.80;90.50;;;;;;10511195;28;20264;-79
2021/03/01 09:06:02;;;;;;;18.87;15.73;;;6.00;90.60;;;;;;10515908;28;20200;-79
2021/03/01 09:11:06;;;;;;;19.27;15.93;;;6.20;90.00;;;;;;10501928;28;20223;-79
2021/03/01 09:16:10;;;;;;;22.80;15.57;;;6.40;90.00;;;;;;10496863;28;20203;-80
2021/03/01 09:21:16;;;;;;;15.87;13.77;;;6.60;88.40;;;;;;10497417;28;20213;-79
2021/03/01 09:26:23;;;;;;;19.23;15.10;;;6.70;87.70;;;;;;10500188;28;20196;-79
2021/03/01 09:31:26;;;;;;;19.37;14.27;;;6.90;87.00;;;;;;10515119;28;20220;-80
2021/03/01 09:36:29;;;;;;;17.50;14.80;;;7.10;86.50;;;;;;10516845;28;20651;-79
2021/03/01 09:41:34;;;;;;;18.23;13.90;;;7.30;86.10;;;;;;10508501;28;20778;-80
2021/03/01 09:46:37;;;;;;;14.80;12.20;;;7.50;85.40;;;;;;10511753;28;20192;-79
2021/03/01 09:51:39;;;;;;;17.13;13.50;;;7.80;85.40;;;;;;10509126;28;20228;-79
2021/03/01 09:56:42;;;;;;;14.77;11.13;;;8.10;84.80;;;;;;10496595;28;20200;-80
2021/03/01 10:01:45;;;;;;;18.10;12.17;;;8.30;83.70;;;;;;10500461;28;20289;-80
2021/03/01 10:06:46;;;;;;;13.07;10.80;;;8.60;83.00;;;;;;10486852;28;20296;-80
2021/03/01 10:11:48;;;;;;;12.77;11.07;;;8.70;80.40;;;;;;10499617;28;20289;-79
2021/03/01 10:16:50;;;;;;;11.80;10.60;;;8.80;81.50;;;;;;10490456;28;20201;-79
2021/03/01 10:22:00;;;;;;;11.03;9.60;;;8.80;80.90;;;;;;10498861;28;20326;-80
2021/03/01 10:27:03;;;;;;;13.10;10.93;;;8.80;80.10;;;;;;10494543;28;20676;-79
2021/03/01 10:32:19;;;;;;;14.37;11.10;;;8.80;77.60;;;;;;10501548;28;20220;-79
2021/03/01 10:37:23;;;;;;;10.57;9.47;;;8.80;78.50;;;;;;10522257;28;20196;-79
2021/03/01 10:42:26;;;;;;;13.37;11.50;;;8.80;79.20;;;;;;10511658;28;20208;-80
2021/03/01 10:47:31;;;;;;;11.50;10.30;;;8.80;78.80;;;;;;10498392;28;20228;-80
2021/03/01 10:52:34;;;;;;;11.63;10.33;;;8.80;78.60;;;;;;10480699;28;20577;-79
2021/03/01 10:57:36;;;;;;;11.57;9.60;;;8.80;77.90;;;;;;10510732;28;20207;-79
2021/03/01 11:02:38;;;;;;;11.00;9.70;;;8.90;79.20;;;;;;10516395;28;20679;-79
2021/03/01 11:07:40;;;;;;;10.47;9.47;;;8.90;78.70;;;;;;10531982;28;20196;-79
2021/03/01 11:12:42;;;;;;;9.83;8.87;;;9.00;77.00;;;;;;10522295;28;20304;-80
2021/03/01 11:17:44;;;;;;;10.30;9.13;;;9.10;75.60;;;;;;10525350;28;20240;-79
2021/03/01 11:22:46;;;;;;;9.97;8.37;;;9.10;77.40;;;;;;10517582;28;20639;-79
2021/03/01 11:27:47;;;;;;;10.47;9.10;;;9.20;75.90;;;;;;10524491;28;20207;-79
2021/03/01 11:32:51;;;;;;;10.43;8.50;;;9.20;75.40;;;;;;10529546;28;20229;-80
2021/03/01 11:37:52;;;;;;;9.10;8.20;;;9.30;77.50;;;;;;10520047;28;20707;-80
2021/03/01 11:42:54;;;;;;;8.93;8.00;;;9.40;75.90;;;;;;10525371;28;20333;-79
2021/03/01 11:47:56;;;;;;;9.80;8.27;;;9.50;76.00;;;;;;10530433;28;20643;-80
2021/03/01 11:52:58;;;;;;;9.47;8.40;;;9.60;72.90;;;;;;10531838;28;20217;-80
2021/03/01 11:58:00;;;;;;;8.97;7.60;;;9.70;76.60;;;;;;10529034;28;20618;-80
2021/03/01 12:03:02;;;;;;;7.13;6.43;;;9.70;77.10;;;;;;10511013;28;20216;-80
2021/03/01 12:08:05;;;;;;;6.73;6.20;;;9.70;74.00;;;;;;10523757;28;20192;-79
2021/03/01 12:13:07;;;;;;;5.90;5.40;;;9.80;71.00;;;;;;10531494;28;20303;-79
2021/03/01 12:18:10;;;;;;;6.80;5.80;;;9.90;71.40;;;;;;10516781;28;20226;-80
2021/03/01 12:23:11;;;;;;;6.43;5.83;;;10.20;64.30;;;;;;10522841;28;20193;-80
2021/03/01 12:28:13;;;;;;;4.60;4.17;;;10.40;66.20;;;;;;10523421;28;20228;-80
2021/03/01 12:33:16;;;;;;;3.87;3.57;;;10.50;61.50;;;;;;10517195;28;20615;-79
2021/03/01 12:38:17;;;;;;;3.77;3.47;;;10.80;60.40;;;;;;10500389;28;20687;-80
2021/03/01 12:43:19;;;;;;;4.37;4.07;;;11.00;57.80;;;;;;10525793;28;20193;-80
2021/03/01 12:48:22;;;;;;;3.70;3.40;;;11.30;55.90;;;;;;10518196;28;20560;-80
2021/03/01 12:53:23;;;;;;;4.17;3.87;;;11.60;56.00;;;;;;10515142;28;20603;-80
2021/03/01 12:58:25;;;;;;;4.43;4.07;;;11.70;58.00;;;;;;10500620;28;20269;-80
2021/03/01 13:03:27;;;;;;;4.20;3.90;;;11.70;57.60;;;;;;10507340;28;20198;-79
2021/03/01 13:08:30;;;;;;;4.47;4.07;;;11.90;56.40;;;;;;10508042;28;20228;-80
2021/03/01 13:13:31;;;;;;;4.00;3.60;;;12.10;57.00;;;;;;10491351;28;20220;-79
2021/03/01 13:18:34;;;;;;;3.70;3.40;;;12.20;56.90;;;;;;10481026;28;20224;-79
2021/03/01 13:23:36;;;;;;;5.07;4.40;;;12.30;55.90;;;;;;10505589;28;20685;-80
2021/03/01 13:28:38;;;;;;;4.60;4.10;;;12.40;56.50;;;;;;10510591;28;20227;-79
2021/03/01 13:33:43;;;;;;;4.00;3.70;;;12.50;55.90;;;;;;10483057;28;20292;-79
2021/03/01 13:38:44;;;;;;;3.90;3.50;;;12.70;54.80;;;;;;10496509;28;20284;-80
2021/03/01 13:43:46;;;;;;;5.03;4.63;;;12.80;56.40;;;;;;10493167;28;20205;-79
2021/03/01 13:48:48;;;;;;;4.43;4.03;;;12.70;57.50;;;;;;10502186;28;20675;-80
2021/03/01 13:53:51;;;;;;;4.10;3.80;;;12.60;58.90;;;;;;10477948;28;20229;-80
2021/03/01 13:58:52;;;;;;;5.50;4.70;;;12.40;59.60;;;;;;10504717;22;20285;-84
2021/03/01 14:03:56;;;;;;;5.13;4.63;;;12.20;58.00;;;;;;10536744;28;20235;-81
2021/03/01 14:08:58;;;;;;;5.03;4.53;;;12.10;59.30;;;;;;10523029;28;20216;-81
2021/03/01 14:13:59;;;;;;;4.43;4.03;;;12.30;58.50;;;;;;10516583;28;20220;-81
2021/03/01 14:19:02;;;;;;;4.80;4.40;;;12.20;59.50;;;;;;10530580;28;20300;-81
2021/03/01 14:24:04;;;;;;;4.63;4.23;;;12.10;62.30;;;;;;10493007;28;20226;-81
2021/03/01 14:29:06;;;;;;;5.13;4.47;;;12.10;57.60;;;;;;10518290;28;20226;-81
2021/03/01 14:34:09;;;;;;;4.70;4.30;;;12.40;56.70;;;;;;10533136;28;20229;-81
2021/03/01 14:39:11;;;;;;;4.13;3.13;;;12.70;56.40;;;;;;10539623;28;20242;-81
2021/03/01 14:44:12;;;;;;;4.50;4.03;;;12.80;59.50;;;;;;10560444;28;20262;-81
2021/03/01 14:49:15;;;;;;;6.60;5.00;;;12.80;57.80;;;;;;10550941;28;20694;-81
2021/03/01 14:54:17;;;;;;;5.30;4.80;;;12.80;56.60;;;;;;10549378;28;20223;-81
2021/03/01 14:59:18;;;;;;;4.23;3.83;;;13.00;56.70;;;;;;10519308;28;20227;-81
2021/03/01 15:04:21;;;;;;;4.53;3.97;;;13.00;59.20;;;;;;10520054;28;20666;-81
2021/03/01 15:09:22;;;;;;;4.30;3.90;;;12.90;56.40;;;;;;10547030;28;20310;-81
2021/03/01 15:14:24;;;;;;;4.37;3.97;;;12.90;55.90;;;;;;10543292;28;20272;-81
2021/03/01 15:19:26;;;;;;;5.80;4.77;;;12.90;57.00;;;;;;10526576;28;20216;-81
2021/03/01 15:24:28;;;;;;;4.50;3.87;;;12.80;56.60;;;;;;10523879;28;20553;-81
2021/03/01 15:29:30;;;;;;;5.40;4.80;;;13.00;55.10;;;;;;10553651;28;20220;-81
2021/03/01 15:34:32;;;;;;;4.87;3.90;;;13.10;55.00;;;;;;10543293;28;20303;-81
2021/03/01 15:39:34;;;;;;;4.97;4.10;;;13.20;54.90;;;;;;10534448;28;20223;-82
2021/03/01 15:44:35;;;;;;;5.03;4.47;;;13.30;55.40;;;;;;10517486;28;20284;-82
2021/03/01 15:49:38;;;;;;;3.80;3.50;;;13.20;56.50;;;;;;10531276;28;20224;-82
2021/03/01 15:54:40;;;;;;;3.40;3.10;;;13.10;57.30;;;;;;10541086;28;20227;-82
2021/03/01 15:59:41;;;;;;;4.17;3.67;;;13.00;55.60;;;;;;10529053;28;20235;-82
2021/03/01 16:04:44;;;;;;;4.60;4.20;;;13.00;53.90;;;;;;10538058;28;20200;-82
2021/03/01 16:09:45;;;;;;;5.40;3.70;;;13.10;54.70;;;;;;10517887;28;20216;-82
2021/03/01 16:14:47;;;;;;;6.17;4.40;;;13.00;56.00;;;;;;10560806;28;20573;-82
2021/03/01 16:19:49;;;;;;;4.83;4.40;;;13.00;56.10;;;;;;10562035;28;20261;-82
2021/03/01 16:24:51;;;;;;;4.33;4.00;;;12.90;55.50;;;;;;10550105;28;20227;-82
2021/03/01 16:29:53;;;;;;;5.63;4.20;;;12.80;55.10;;;;;;10553142;28;20715;-81
2021/03/01 16:34:55;;;;;;;4.80;4.40;;;12.70;55.70;;;;;;10531591;28;20207;-81
2021/03/01 16:39:57;;;;;;;4.17;3.80;;;12.60;56.20;;;;;;10562045;28;20255;-81
2021/03/01 16:45:00;;;;;;;5.97;4.77;;;12.50;56.00;;;;;;10561888;28;20222;-81
2021/03/01 16:50:04;;;;;;;4.77;4.33;;;12.40;56.50;;;;;;10543477;28;20287;-81
2021/03/01 16:55:06;;;;;;;5.07;4.57;;;12.30;56.40;;;;;;10551932;28;20199;-81
2021/03/01 17:00:10;;;;;;;5.00;4.57;;;12.10;56.60;;;;;;10568617;28;20260;-80
2021/03/01 17:05:14;;;;;;;5.30;4.80;;;12.00;57.50;;;;;;10553680;28;20192;-81
2021/03/01 17:10:19;;;;;;;5.33;4.83;;;11.80;56.90;;;;;;10554887;28;20270;-81
2021/03/01 17:15:21;;;;;;;5.63;4.40;;;11.70;57.20;;;;;;10547359;28;20192;-79
2021/03/01 17:20:25;;;;;;;5.90;5.30;;;11.60;57.40;;;;;;10539105;28;20215;-79
2021/03/01 17:25:27;;;;;;;8.57;5.40;;;11.50;57.50;;;;;;10557076;28;20200;-80
2021/03/01 17:30:29;;;;;;;8.27;5.67;;;11.40;57.90;;;;;;10558597;28;20240;-81
2021/03/01 17:35:32;;;;;;;7.40;5.60;;;11.20;58.40;;;;;;10542948;28;20223;-81
2021/03/01 17:40:34;;;;;;;8.53;6.00;;;11.10;58.80;;;;;;10552274;28;20211;-81
2021/03/01 17:45:36;;;;;;;6.87;6.17;;;10.90;58.90;;;;;;10551283;28;20207;-81
2021/03/01 17:50:41;;;;;;;10.43;9.10;;;10.80;59.50;;;;;;10534376;28;20239;-80
2021/03/01 17:55:52;;;;;;;10.97;9.57;;;10.60;59.90;;;;;;10538787;28;20204;-81
2021/03/01 18:00:55;;;;;;;14.40;12.30;;;10.50;60.30;;;;;;10513152;28;20468;-81
2021/03/01 18:06:00;;;;;;;9.93;8.50;;;10.30;60.70;;;;;;10520389;28;20200;-81
2021/03/01 18:11:02;;;;;;;9.43;8.43;;;10.20;61.20;;;;;;10507341;28;20270;-80
2021/03/01 18:16:05;;;;;;;7.17;6.43;;;10.10;61.50;;;;;;10504315;28;20208;-81
2021/03/01 18:21:08;;;;;;;7.83;7.10;;;10.00;61.70;;;;;;10504875;28;20212;-81
2021/03/01 18:26:09;;;;;;;8.23;7.27;;;9.90;63.40;;;;;;10521143;28;20268;-82
2021/03/01 18:31:13;;;;;;;8.77;7.90;;;9.80;63.50;;;;;;10520450;28;20568;-81
2021/03/01 18:36:24;;;;;;;9.90;8.63;;;9.80;64.20;;;;;;10514310;28;20210;-81
2021/03/01 18:41:29;;;;;;;11.67;9.30;;;9.70;65.00;;;;;;10531563;28;20715;-81
2021/03/01 18:46:32;;;;;;;8.67;7.77;;;9.60;65.70;;;;;;10510174;28;20195;-81
2021/03/01 18:51:35;;;;;;;8.40;7.50;;;9.50;66.30;;;;;;10550473;28;20729;-81
2021/03/01 18:56:36;;;;;;;8.37;7.50;;;9.40;67.00;;;;;;10549000;28;20580;-81
2021/03/01 19:01:38;;;;;;;7.60;6.90;;;9.30;67.40;;;;;;10521890;28;20255;-81
2021/03/01 19:06:57;;;;;;;8.47;7.67;;;9.20;68.20;;;;;;10527492;28;20203;-81
2021/03/01 19:12:01;;;;;;;9.37;8.40;;;9.10;68.70;;;;;;10535981;28;20219;-81
2021/03/01 19:17:02;;;;;;;7.23;6.53;;;9.00;69.30;;;;;;10541491;28;20568;-81
2021/03/01 19:22:05;;;;;;;9.70;8.00;;;9.00;69.50;;;;;;10553850;28;20231;-81
2021/03/01 19:27:09;;;;;;;13.20;10.23;;;8.90;69.80;;;;;;10558367;28;20203;-81
2021/03/01 19:32:11;;;;;;;13.43;10.00;;;8.90;70.20;;;;;;10539896;28;20295;-81
2021/03/01 19:37:13;;;;;;;12.13;10.43;;;8.90;70.50;;;;;;10549125;28;20663;-81
2021/03/01 19:42:15;;;;;;;10.87;9.10;;;8.80;71.20;;;;;;10543259;28;20219;-81
2021/03/01 19:47:17;;;;;;;12.83;11.57;;;8.80;71.60;;;;;;10548885;28;20203;-81
2021/03/01 19:52:19;;;;;;;15.50;13.90;;;8.70;72.40;;;;;;10552716;28;20215;-81
2021/03/01 19:57:22;;;;;;;24.53;17.57;;;8.60;72.00;;;;;;10557476;28;20211;-81
2021/03/01 20:02:25;;;;;;;21.70;17.50;;;8.60;72.80;;;;;;10565506;28;20223;-81
2021/03/01 20:07:28;;;;;;;16.60;13.07;;;8.50;73.10;;;;;;10553389;28;20196;-81
2021/03/01 20:12:29;;;;;;;15.10;11.30;;;8.40;73.70;;;;;;10531970;28;20306;-81
2021/03/01 20:17:31;;;;;;;11.40;10.10;;;8.30;74.10;;;;;;10535014;28;20203;-79
2021/03/01 20:22:33;;;;;;;15.10;10.93;;;8.30;74.50;;;;;;10546863;28;20239;-80
2021/03/01 20:27:35;;;;;;;11.90;10.20;;;8.20;74.70;;;;;;10532124;28;20619;-79
2021/03/01 20:32:37;;;;;;;11.33;10.03;;;8.20;75.20;;;;;;10528465;28;20243;-79
2021/03/01 20:37:39;;;;;;;10.23;9.13;;;8.10;75.60;;;;;;10523344;28;20796;-79
2021/03/01 20:42:42;;;;;;;12.33;10.20;;;8.00;76.00;;;;;;10518633;28;20222;-79
2021/03/01 20:47:43;;;;;;;9.70;8.67;;;8.00;76.50;;;;;;10524974;28;20211;-79
2021/03/01 20:52:47;;;;;;;9.97;8.97;;;7.90;76.30;;;;;;10527429;28;20227;-79
2021/03/01 20:57:48;;;;;;;10.10;8.43;;;7.90;76.80;;;;;;10535292;28;20211;-79
2021/03/01 21:02:50;;;;;;;10.43;8.53;;;7.80;77.00;;;;;;10540706;28;20605;-79
2021/03/01 21:07:54;;;;;;;10.40;9.10;;;7.80;77.50;;;;;;10543493;28;20199;-79
2021/03/01 21:12:59;;;;;;;11.93;8.67;;;7.70;77.30;;;;;;10539073;28;20228;-79
2021/03/01 21:18:02;;;;;;;9.93;7.57;;;7.70;77.90;;;;;;10535098;28;20820;-79
2021/03/01 21:23:11;;;;;;;10.30;8.47;;;7.60;77.70;;;;;;10535057;28;20698;-79
2021/03/01 21:28:19;;;;;;;8.87;7.90;;;7.60;78.00;;;;;;10518521;28;20323;-79
2021/03/01 21:33:22;;;;;;;8.53;7.70;;;7.50;78.40;;;;;;10517827;28;20227;-79
2021/03/01 21:38:26;;;;;;;8.70;7.90;;;7.40;78.90;;;;;;10533057;28;20655;-79
2021/03/01 21:43:28;;;;;;;9.00;7.90;;;7.40;79.50;;;;;;10516632;28;20748;-78
2021/03/01 21:48:34;;;;;;;9.43;8.13;;;7.40;79.50;;;;;;10544006;28;20195;-79
2021/03/01 21:53:43;;;;;;;8.63;7.70;;;7.40;79.80;;;;;;10540682;28;20226;-79
2021/03/01 21:58:46;;;;;;;10.70;8.60;;;7.30;80.00;;;;;;10544992;28;20196;-79
2021/03/01 22:03:51;;;;;;;10.37;9.27;;;7.20;80.40;;;;;;10545249;28;20192;-79
2021/03/01 22:08:54;;;;;;;9.57;8.63;;;7.20;80.70;;;;;;10541374;28;20223;-79
2021/03/01 22:13:56;;;;;;;10.00;8.63;;;7.10;81.00;;;;;;10520573;28;20224;-79
2021/03/01 22:18:59;;;;;;;9.07;8.17;;;7.10;81.60;;;;;;10524133;28;20222;-79
2021/03/01 22:24:01;;;;;;;9.50;8.00;;;7.00;81.80;;;;;;10532303;28;20600;-79
2021/03/01 22:29:08;;;;;;;7.90;7.10;;;7.00;82.20;;;;;;10546803;28;20292;-79
2021/03/01 22:34:16;;;;;;;9.20;8.23;;;6.90;82.30;;;;;;10548227;28;20220;-79
2021/03/01 22:39:22;;;;;;;9.30;8.00;;;6.90;82.50;;;;;;10546936;28;20223;-79
2021/03/01 22:44:25;;;;;;;8.87;7.97;;;6.80;83.10;;;;;;10531801;28;20196;-79
2021/03/01 22:49:27;;;;;;;9.23;8.10;;;6.80;84.00;;;;;;10541853;28;20223;-79
2021/03/01 22:54:34;;;;;;;10.67;8.30;;;6.90;83.10;;;;;;10540036;28;20243;-79
2021/03/01 22:59:35;;;;;;;12.00;8.63;;;6.90;83.10;;;;;;10549056;28;20247;-79
2021/03/01 23:04:38;;;;;;;9.30;7.40;;;6.90;83.30;;;;;;10550197;28;20199;-79
2021/03/01 23:09:41;;;;;;;10.47;7.43;;;6.90;83.30;;;;;;10550435;28;20233;-79
2021/03/01 23:14:42;;;;;;;8.70;7.53;;;6.90;83.50;;;;;;10550112;28;20219;-79
2021/03/01 23:19:44;;;;;;;8.13;7.30;;;6.90;83.60;;;;;;10548901;28;20231;-79
2021/03/01 23:24:48;;;;;;;8.73;7.33;;;6.80;84.00;;;;;;10542919;28;20200;-79
2021/03/01 23:29:49;;;;;;;7.10;6.07;;;6.80;84.10;;;;;;10548350;28;20219;-79
2021/03/01 23:34:51;;;;;;;8.40;6.53;;;6.80;84.20;;;;;;10541410;28;20281;-79
2021/03/01 23:39:54;;;;;;;7.80;7.00;;;6.70;84.70;;;;;;10550303;28;20216;-79
2021/03/01 23:44:57;;;;;;;6.77;6.07;;;6.70;84.50;;;;;;10549176;28;20204;-79
2021/03/01 23:49:59;;;;;;;7.93;6.43;;;6.60;85.20;;;;;;10551617;28;20288;-79
2021/03/01 23:55:02;;;;;;;6.90;6.13;;;6.60;85.00;;;;;;10560491;28;20216;-79
